Time;durP1;ratioP1;P1;durP2;ratioP2;P2;SDS_P1;SDS_P2;PMS_P1;PMS_P2;Temp;Humidity;BMP_temperature;BMP_pressure;BME280_temperature;BME280_humidity;BME280_pressure;Samples;Min_cycle;Max_cycle;Signal;HPM_P1;HPM_P2
2021/06/22 00:01:05;;;;;;;5.27;4.80;;;;;;;18.69;100.00;96646.75;5071556;28;20204;-85
2021/06/22 00:03:34;;;;;;;5.50;4.43;;;;;;;18.61;100.00;96615.00;5071638;28;20197;-85
2021/06/22 00:06:01;;;;;;;5.03;4.73;;;;;;;18.46;100.00;96603.69;5071697;28;20185;-85
2021/06/22 00:08:28;;;;;;;4.73;4.33;;;;;;;18.38;100.00;96579.91;5071848;28;20620;-85
2021/06/22 00:10:55;;;;;;;5.40;4.63;;;;;;;18.23;100.00;96567.59;5071605;28;20203;-85
2021/06/22 00:13:23;;;;;;;5.47;4.90;;;;;;;18.19;100.00;96561.03;5071627;28;20254;-85
2021/06/22 00:15:50;;;;;;;6.33;4.87;;;;;;;18.25;100.00;96548.75;5071537;28;20229;-85
2021/06/22 00:18:17;;;;;;;6.87;4.50;;;;;;;18.36;100.00;96526.06;5071478;28;20282;-86
2021/06/22 00:20:46;;;;;;;6.23;5.20;;;;;;;18.33;100.00;96527.31;5071447;28;20251;-85
2021/06/22 00:23:13;;;;;;;12.63;5.57;;;;;;;18.48;100.00;96532.47;5071327;28;20670;-86
2021/06/22 00:25:41;;;;;;;4.60;4.30;;;;;;;18.51;100.00;96511.59;5071598;28;20648;-85
2021/06/22 00:28:08;;;;;;;4.90;4.57;;;;;;;18.08;100.00;96503.09;5071488;28;20193;-85
2021/06/22 00:30:35;;;;;;;5.33;4.97;;;;;;;17.83;100.00;96506.25;5074990;28;20248;-85
2021/06/22 00:33:03;;;;;;;5.17;4.73;;;;;;;17.71;100.00;96499.84;5075045;28;20209;-85
2021/06/22 00:35:30;;;;;;;5.50;5.10;;;;;;;17.65;100.00;96487.34;5075071;28;20207;-86
2021/06/22 00:37:59;;;;;;;4.77;4.00;;;;;;;17.64;100.00;96485.72;5075526;28;20669;-86
2021/06/22 00:40:26;;;;;;;5.07;4.63;;;;;;;17.80;100.00;96505.84;5075309;28;20298;-86
2021/06/22 00:42:54;;;;;;;5.70;5.20;;;;;;;17.90;100.00;96487.66;5075571;28;20197;-86
2021/06/22 00:45:27;;;;;;;5.17;4.77;;;;;;;17.96;100.00;96457.63;5074809;28;20197;-86
2021/06/22 00:47:55;;;;;;;5.37;4.73;;;;;;;18.11;100.00;96433.50;5074992;28;20303;-86
2021/06/22 00:50:22;;;;;;;5.27;4.87;;;;;;;18.33;100.00;96372.19;5075072;28;20197;-86
2021/06/22 00:52:50;;;;;;;6.00;5.00;;;;;;;18.46;100.00;96294.97;5075014;28;20200;-86
2021/06/22 00:55:29;;;;;;;6.77;4.97;;;;;;;18.18;100.00;96210.91;5074582;28;20197;-86
2021/06/22 00:57:59;;;;;;;5.87;5.00;;;;;;;18.00;100.00;96200.09;5074777;28;20201;-86
2021/06/22 01:00:27;;;;;;;5.13;4.67;;;;;;;18.09;100.00;96214.81;5074581;28;20193;-86
2021/06/22 01:02:55;;;;;;;8.43;5.20;;;;;;;18.08;100.00;96194.56;5074611;28;20185;-87
2021/06/22 01:05:23;;;;;;;4.57;4.00;;;;;;;18.07;100.00;96187.59;5075002;28;20223;-86
2021/06/22 01:07:54;;;;;;;4.87;4.40;;;;;;;17.91;100.00;96188.03;5074702;28;20196;-86
2021/06/22 01:10:24;;;;;;;5.20;4.67;;;;;;;17.86;100.00;96206.44;5074407;28;20305;-85
2021/06/22 01:12:52;;;;;;;5.50;5.03;;;;;;;18.02;100.00;96227.31;5074877;28;20280;-85
2021/06/22 01:15:21;;;;;;;5.33;4.83;;;;;;;18.00;100.00;96216.06;5074408;28;20225;-86
2021/06/22 01:17:52;;;;;;;4.93;4.53;;;;;;;17.99;100.00;96217.91;5074530;28;20207;-86
2021/06/22 01:20:22;;;;;;;5.57;4.40;;;;;;;17.94;100.00;96204.41;5074419;28;20182;-85
2021/06/22 01:22:51;;;;;;;7.07;4.77;;;;;;;18.03;100.00;96203.16;5074609;28;20650;-86
2021/06/22 01:25:18;;;;;;;5.07;4.43;;;;;;;18.04;100.00;96227.91;5074526;28;20197;-86
2021/06/22 01:27:46;;;;;;;5.23;4.77;;;;;;;17.99;100.00;96227.72;5074678;28;20197;-86
2021/06/22 01:30:14;;;;;;;5.27;4.77;;;;;;;17.97;100.00;96235.88;5073892;28;20205;-86
2021/06/22 01:32:41;;;;;;;4.33;4.03;;;;;;;18.03;100.00;96244.91;5074568;28;20201;-85
2021/06/22 01:35:10;;;;;;;4.97;4.40;;;;;;;18.00;100.00;96237.31;5074083;28;20223;-86
2021/06/22 01:37:50;;;;;;;5.97;4.67;;;;;;;17.89;100.00;96236.09;5074367;28;20197;-85
2021/06/22 01:40:19;;;;;;;5.80;4.37;;;;;;;17.76;100.00;96236.09;5073367;28;20212;-85
2021/06/22 01:42:47;;;;;;;5.23;4.73;;;;;;;17.80;100.00;96251.47;5074490;28;20270;-85
2021/06/22 01:45:15;;;;;;;6.93;4.80;;;;;;;17.88;100.00;96247.78;5074282;28;20197;-86
2021/06/22 01:47:43;;;;;;;6.63;5.00;;;;;;;17.89;100.00;96236.09;5074127;28;20622;-86
2021/06/22 01:50:11;;;;;;;7.77;4.47;;;;;;;17.95;100.00;96218.53;5073709;28;20272;-85
2021/06/22 01:52:39;;;;;;;5.97;4.50;;;;;;;18.07;100.00;96206.22;5073987;28;20200;-85
2021/06/22 01:57:49;;;;;;;6.47;4.63;;;;;;;17.94;100.00;96225.69;5072418;28;20585;-86
2021/06/22 02:00:17;;;;;;;5.20;4.60;;;;;;;17.96;100.00;96236.09;5073864;28;20216;-86
2021/06/22 02:02:44;;;;;;;5.10;4.53;;;;;;;17.98;100.00;96255.34;5073559;28;20196;-85
2021/06/22 02:05:14;;;;;;;5.37;4.97;;;;;;;17.92;100.00;96280.09;5073475;28;20576;-85
2021/06/22 02:07:41;;;;;;;4.43;4.13;;;;;;;17.89;100.00;96285.81;5073504;28;20194;-86
2021/06/22 02:10:09;;;;;;;5.13;4.73;;;;;;;17.94;100.00;96307.28;5073713;28;20201;-86
2021/06/22 02:12:36;;;;;;;5.30;4.90;;;;;;;18.00;100.00;96301.16;5073705;28;20266;-85
2021/06/22 02:15:07;;;;;;;4.70;4.37;;;;;;;17.96;100.00;96297.25;5073057;28;20202;-85
2021/06/22 02:17:34;;;;;;;5.00;4.60;;;;;;;17.97;100.00;96293.56;5073821;28;20197;-85
2021/06/22 02:20:02;;;;;;;5.57;4.07;;;;;;;17.96;100.00;96291.94;5073059;28;20278;-86
2021/06/22 02:22:29;;;;;;;5.23;4.73;;;;;;;18.04;100.00;96299.72;5073399;28;20613;-84
2021/06/22 02:24:56;;;;;;;5.03;4.73;;;;;;;18.11;100.00;96299.72;5072686;28;20666;-84
2021/06/22 02:27:25;;;;;;;5.83;4.60;;;;;;;18.08;100.00;96300.97;5073384;28;20205;-85
2021/06/22 02:29:52;;;;;;;4.37;3.97;;;;;;;18.04;100.00;96302.38;5072885;28;20291;-85
2021/06/22 02:32:21;;;;;;;5.63;5.13;;;;;;;18.12;100.00;96312.81;5071296;28;20197;-85
2021/06/22 02:34:49;;;;;;;5.00;4.50;;;;;;;18.08;100.00;96308.94;5066541;28;20275;-85
2021/06/22 02:37:17;;;;;;;5.60;4.80;;;;;;;17.98;100.00;96324.47;5059488;28;20234;-85
2021/06/22 02:39:44;;;;;;;5.53;5.03;;;;;;;17.99;100.00;96334.91;5058819;28;20224;-85
2021/06/22 02:42:11;;;;;;;5.50;5.00;;;;;;;17.99;100.00;96324.25;5072717;28;20185;-85
2021/06/22 02:44:39;;;;;;;5.23;4.83;;;;;;;18.03;100.00;96322.00;5072589;28;20201;-86
2021/06/22 02:47:06;;;;;;;4.80;4.50;;;;;;;18.01;100.00;96314.25;5065180;28;20640;-85
2021/06/22 02:49:35;;;;;;;5.37;4.83;;;;;;;17.97;100.00;96310.34;5071370;28;20315;-85
2021/06/22 02:52:05;;;;;;;5.33;4.87;;;;;;;17.87;100.00;96315.25;5068594;28;20567;-85
2021/06/22 02:54:33;;;;;;;4.70;4.30;;;;;;;17.71;100.00;96316.44;5072686;28;20280;-85
2021/06/22 02:57:00;;;;;;;4.70;4.30;;;;;;;17.55;100.00;96335.41;5064931;28;20205;-85
2021/06/22 02:59:27;;;;;;;5.30;4.83;;;;;;;17.56;100.00;96323.75;5052633;28;20221;-85
2021/06/22 03:01:55;;;;;;;4.73;4.37;;;;;;;17.47;100.00;96309.03;5052451;28;20201;-85
2021/06/22 03:04:22;;;;;;;5.33;4.83;;;;;;;17.42;100.00;96279.56;5052177;28;20202;-84
2021/06/22 03:06:51;;;;;;;6.63;5.27;;;;;;;17.37;100.00;96264.25;5060069;28;20208;-86
2021/06/22 03:09:18;;;;;;;5.23;4.83;;;;;;;17.28;100.00;96254.81;5072331;28;20276;-87
2021/06/22 03:11:45;;;;;;;5.97;5.40;;;;;;;17.22;100.00;96253.78;5066276;28;20197;-87
2021/06/22 03:14:12;;;;;;;6.20;5.60;;;;;;;17.29;100.00;96249.31;5072265;28;20212;-86
2021/06/22 03:16:40;;;;;;;9.50;6.47;;;;;;;17.32;100.00;96230.31;5068400;28;20639;-86
2021/06/22 03:19:07;;;;;;;7.27;6.60;;;;;;;17.27;100.00;96219.47;5051874;28;20261;-83
2021/06/22 03:21:35;;;;;;;5.57;5.17;;;;;;;17.27;100.00;96218.66;5051929;28;20674;-83
2021/06/22 03:24:04;;;;;;;6.00;5.50;;;;;;;17.27;100.00;96214.16;5051801;28;20215;-83
2021/06/22 03:26:31;;;;;;;6.37;5.83;;;;;;;17.23;100.00;96220.06;5065195;28;20241;-83
2021/06/22 03:28:59;;;;;;;5.67;5.17;;;;;;;17.36;100.00;96225.41;5070774;28;20611;-83
2021/06/22 03:31:26;;;;;;;6.57;5.90;;;;;;;17.54;100.00;96220.31;5070929;28;20229;-83
2021/06/22 03:33:53;;;;;;;5.83;5.40;;;;;;;17.57;100.00;96195.19;5070713;28;20207;-83
2021/06/22 03:36:20;;;;;;;6.07;5.57;;;;;;;17.49;100.00;96188.25;5060113;28;20202;-83
2021/06/22 03:38:48;;;;;;;5.80;5.30;;;;;;;17.60;100.00;96197.44;5058249;28;20229;-83
2021/06/22 03:41:18;;;;;;;5.97;5.57;;;;;;;17.73;100.00;96181.47;5070563;28;20280;-83
2021/06/22 03:43:45;;;;;;;7.10;5.77;;;;;;;17.63;100.00;96188.22;5070719;28;20223;-83
2021/06/22 03:46:16;;;;;;;6.03;5.30;;;;;;;17.63;100.00;96202.34;5068410;28;20209;-83
2021/06/22 03:48:44;;;;;;;10.70;6.03;;;;;;;17.73;100.00;96212.56;5070268;28;20236;-83
2021/06/22 03:51:11;;;;;;;6.87;6.07;;;;;;;17.79;100.00;96231.19;5053558;28;20209;-84
2021/06/22 03:53:38;;;;;;;6.00;5.03;;;;;;;17.87;100.00;96242.63;5050139;28;20287;-84
2021/06/22 03:56:06;;;;;;;14.47;5.40;;;;;;;17.86;100.00;96246.34;5055606;28;20215;-84
2021/06/22 03:58:37;;;;;;;7.27;5.70;;;;;;;17.79;100.00;96241.81;5070484;28;20276;-83
2021/06/22 04:01:04;;;;;;;4.83;4.43;;;;;;;17.69;100.00;96248.53;5070496;28;20254;-83
2021/06/22 04:03:31;;;;;;;5.50;5.00;;;;;;;17.72;100.00;96258.78;5072167;28;20673;-84
2021/06/22 04:05:58;;;;;;;7.10;5.40;;;;;;;17.90;100.00;96266.16;5074654;28;20258;-84
2021/06/22 04:08:26;;;;;;;5.00;4.53;;;;;;;17.94;100.00;96252.28;5073876;28;20208;-84
2021/06/22 04:10:53;;;;;;;6.37;5.67;;;;;;;17.86;100.00;96249.81;5074510;28;20610;-83
2021/06/22 04:13:21;;;;;;;5.77;5.33;;;;;;;17.79;100.00;96259.63;5074497;28;20256;-84
2021/06/22 04:15:52;;;;;;;5.07;4.63;;;;;;;17.80;100.00;96264.75;5074728;28;20624;-84
2021/06/22 04:18:22;;;;;;;5.57;5.17;;;;;;;17.77;100.00;96256.38;5074108;28;20274;-83
2021/06/22 04:20:50;;;;;;;5.20;4.80;;;;;;;17.83;100.00;96264.31;5073895;28;20610;-83
2021/06/22 04:23:18;;;;;;;5.87;5.40;;;;;;;17.80;100.00;96255.94;5074513;28;20247;-83
2021/06/22 04:25:45;;;;;;;5.20;4.80;;;;;;;17.81;100.00;96244.28;5074286;28;20297;-81
2021/06/22 04:28:13;;;;;;;5.77;5.37;;;;;;;17.83;100.00;96245.72;5075011;28;20612;-82
2021/06/22 04:30:42;;;;;;;5.73;5.33;;;;;;;17.94;100.00;96246.97;5075198;28;20197;-82
2021/06/22 04:33:11;;;;;;;7.57;5.10;;;;;;;17.93;100.00;96239.97;5069720;28;20231;-84
2021/06/22 04:35:38;;;;;;;6.17;5.27;;;;;;;17.93;100.00;96233.84;5056429;28;20236;-84
2021/06/22 04:38:07;;;;;;;5.53;5.13;;;;;;;17.88;100.00;96236.31;5074949;28;20212;-84
2021/06/22 04:40:36;;;;;;;6.97;5.63;;;;;;;17.89;100.00;96235.28;5075178;28;20220;-85
2021/06/22 04:43:04;;;;;;;5.37;4.97;;;;;;;17.99;100.00;96241.00;5074867;28;20205;-84
2021/06/22 04:45:33;;;;;;;5.70;5.30;;;;;;;18.12;100.00;96233.03;5074895;28;20255;-84
2021/06/22 04:48:01;;;;;;;5.57;5.07;;;;;;;18.20;100.00;96238.13;5075007;28;20260;-84
2021/06/22 04:50:30;;;;;;;5.90;5.43;;;;;;;18.28;100.00;96240.56;5074886;28;20197;-85
2021/06/22 04:52:57;;;;;;;5.93;5.53;;;;;;;18.37;100.00;96251.00;5074965;28;20196;-84
2021/06/22 04:55:25;;;;;;;5.50;5.17;;;;;;;18.49;100.00;96246.66;5074940;28;20626;-85
2021/06/22 04:57:54;;;;;;;5.10;4.63;;;;;;;18.60;100.00;96246.03;5074883;28;20631;-84
2021/06/22 05:00:21;;;;;;;5.60;5.20;;;;;;;18.69;100.00;96231.44;5074787;28;20308;-84
2021/06/22 05:02:49;;;;;;;6.43;5.37;;;;;;;18.81;100.00;96231.66;5074735;28;20666;-84
2021/06/22 05:05:16;;;;;;;5.97;5.43;;;;;;;18.96;100.00;96224.19;5074244;28;20201;-84
2021/06/22 05:07:45;;;;;;;6.63;5.33;;;;;;;19.15;100.00;96214.47;5074928;28;20225;-84
2021/06/22 05:10:13;;;;;;;8.70;5.40;;;;;;;19.21;100.00;96234.94;5074418;28;20584;-84
2021/06/22 05:12:45;;;;;;;8.00;4.80;;;;;;;19.31;100.00;96238.97;5074565;28;20201;-84
2021/06/22 05:15:14;;;;;;;6.47;5.07;;;;;;;19.42;100.00;96265.75;5073593;28;20186;-84
2021/06/22 05:17:41;;;;;;;5.23;4.83;;;;;;;19.59;100.00;96274.06;5074728;28;20193;-84
2021/06/22 05:20:20;;;;;;;4.53;4.23;;;;;;;19.75;100.00;96274.63;5074236;28;20220;-84
2021/06/22 05:22:49;;;;;;;5.27;4.87;;;;;;;19.90;100.00;96297.28;5074344;28;20666;-85
2021/06/22 05:25:16;;;;;;;5.83;5.00;;;;;;;20.08;100.00;96306.38;5074135;28;20201;-84
2021/06/22 05:27:44;;;;;;;5.40;5.00;;;;;;;20.23;100.00;96322.06;5074387;28;20185;-84
2021/06/22 05:30:12;;;;;;;5.50;5.00;;;;;;;20.43;100.00;96325.38;5074058;28;20240;-84
2021/06/22 05:32:39;;;;;;;5.30;4.80;;;;;;;20.66;100.00;96327.47;5074289;28;20668;-82
2021/06/22 05:35:07;;;;;;;5.50;5.10;;;;;;;20.88;100.00;96339.34;5073930;28;20201;-83
2021/06/22 05:37:35;;;;;;;4.57;4.27;;;;;;;21.07;100.00;96364.22;5074111;28;20193;-83
2021/06/22 05:40:04;;;;;;;6.50;5.10;;;;;;;21.30;100.00;96378.75;5073939;28;20217;-83
2021/06/22 05:42:31;;;;;;;5.20;4.87;;;;;;;21.51;100.00;96466.59;5073995;28;20203;-82
2021/06/22 05:44:59;;;;;;;6.70;5.27;;;;;;;21.77;100.00;96461.97;5073855;28;20193;-82
2021/06/22 05:47:26;;;;;;;6.00;5.60;;;;;;;21.98;100.00;96442.75;5073704;28;20201;-83
2021/06/22 05:49:53;;;;;;;5.83;5.37;;;;;;;22.15;100.00;96437.63;5074047;28;20213;-82
2021/06/22 05:52:20;;;;;;;5.30;4.97;;;;;;;22.37;100.00;96435.25;5073617;28;20193;-82
2021/06/22 05:54:48;;;;;;;5.87;5.37;;;;;;;22.61;100.00;96443.34;5073543;28;20197;-83
2021/06/22 05:57:16;;;;;;;6.97;5.20;;;;;;;22.62;100.00;96459.19;5073711;28;20203;-82
2021/06/22 05:59:44;;;;;;;4.87;4.40;;;;;;;22.78;100.00;96487.16;5073400;28;20221;-82
2021/06/22 06:02:11;;;;;;;4.60;4.30;;;;;;;22.90;100.00;96479.16;5073412;28;20205;-82
2021/06/22 06:04:38;;;;;;;5.90;5.17;;;;;;;23.04;100.00;96459.16;5073345;28;20235;-83
2021/06/22 06:07:06;;;;;;;5.10;4.70;;;;;;;23.25;100.00;96460.44;5073871;28;20251;-83
2021/06/22 06:09:33;;;;;;;5.40;4.90;;;;;;;23.44;100.00;96455.75;5073582;28;20223;-82
2021/06/22 06:12:00;;;;;;;4.53;4.23;;;;;;;23.51;100.00;96494.00;5073161;28;20698;-82
2021/06/22 06:14:29;;;;;;;4.67;4.27;;;;;;;23.71;100.00;96459.56;5073167;28;20201;-82
2021/06/22 06:16:56;;;;;;;4.47;4.17;;;;;;;23.90;100.00;96417.28;5073290;28;20207;-83
2021/06/22 06:19:24;;;;;;;4.60;4.00;;;;;;;23.96;100.00;96434.28;5073002;28;20201;-82
2021/06/22 06:21:51;;;;;;;4.70;4.30;;;;;;;24.08;100.00;96488.78;5073050;28;20694;-82
2021/06/22 06:24:18;;;;;;;4.33;4.03;;;;;;;24.33;100.00;96530.59;5072940;28;20251;-83
2021/06/22 06:26:56;;;;;;;4.43;4.13;;;;;;;24.50;100.00;96471.59;5072369;28;20193;-82
2021/06/22 06:29:30;;;;;;;4.80;4.43;;;;;;;24.51;100.00;96506.25;5071539;28;20181;-83
2021/06/22 06:31:59;;;;;;;4.83;4.43;;;;;;;24.74;100.00;96483.84;5072667;28;20651;-83
2021/06/22 06:34:26;;;;;;;4.70;4.30;;;;;;;24.78;100.00;96479.59;5072721;28;20655;-83
2021/06/22 06:36:54;;;;;;;4.73;4.27;;;;;;;24.60;100.00;96477.94;5073228;28;20204;-82
2021/06/22 06:39:21;;;;;;;5.43;4.00;;;;;;;24.67;100.00;96483.19;5072618;28;20201;-83
2021/06/22 06:41:48;;;;;;;5.30;4.90;;;;;;;24.67;100.00;96480.47;5072880;28;20201;-83
2021/06/22 06:44:15;;;;;;;4.97;4.50;;;;;;;25.01;100.00;96480.47;5072633;28;20288;-82
2021/06/22 06:46:43;;;;;;;6.83;4.97;;;;;;;25.29;100.00;96468.84;5072709;28;20192;-82
2021/06/22 06:49:12;;;;;;;4.50;4.20;;;;;;;25.27;100.00;96477.16;5072061;28;20275;-82
2021/06/22 06:51:39;;;;;;;4.50;4.10;;;;;;;25.39;100.00;96434.03;5072633;28;20232;-82
2021/06/22 06:54:06;;;;;;;5.37;4.87;;;;;;;25.52;100.00;96467.81;5072688;28;20270;-83
2021/06/22 06:56:34;;;;;;;5.23;4.83;;;;;;;25.80;100.00;96456.09;5072588;28;20197;-83
2021/06/22 06:59:01;;;;;;;6.70;5.60;;;;;;;25.95;100.00;96504.78;5072454;28;20670;-83
2021/06/22 07:01:28;;;;;;;5.33;4.83;;;;;;;25.91;100.00;96519.81;5072334;28;20282;-82
2021/06/22 07:03:56;;;;;;;5.33;4.83;;;;;;;25.88;100.00;96465.63;5072459;28;20193;-83
2021/06/22 07:06:25;;;;;;;6.40;4.50;;;;;;;25.67;100.00;96470.72;5072219;28;20197;-83
2021/06/22 07:08:52;;;;;;;5.37;4.97;;;;;;;25.76;100.00;96524.94;5072173;28;20209;-83
2021/06/22 07:11:21;;;;;;;6.93;6.30;;;;;;;25.78;100.00;96599.00;5072328;28;20193;-83
2021/06/22 07:13:48;;;;;;;8.20;6.67;;;;;;;26.15;100.00;96606.56;5071872;28;20700;-83
2021/06/22 07:16:16;;;;;;;6.23;5.57;;;;;;;26.08;100.00;96590.59;5072297;28;20201;-83
2021/06/22 07:18:44;;;;;;;8.93;7.10;;;;;;;25.92;100.00;96577.97;5071957;28;20201;-83
2021/06/22 07:21:12;;;;;;;7.50;5.70;;;;;;;26.33;100.00;96582.00;5072158;28;20299;-83
2021/06/22 07:23:41;;;;;;;6.37;5.77;;;;;;;26.67;100.00;96598.06;5071701;28;20204;-83
2021/06/22 07:26:09;;;;;;;6.97;5.90;;;;;;;26.67;100.00;96543.31;5072171;28;20230;-83
2021/06/22 07:28:36;;;;;;;9.13;7.03;;;;;;;26.39;100.00;96558.59;5072158;28;20248;-83
2021/06/22 07:31:04;;;;;;;11.33;7.07;;;;;;;26.01;100.00;96578.34;5072112;28;20193;-83
2021/06/22 07:33:31;;;;;;;7.80;7.07;;;;;;;26.09;100.00;96610.25;5071893;28;20623;-83
2021/06/22 07:35:59;;;;;;;12.00;8.33;;;;;;;26.32;100.00;96585.78;5071981;28;20624;-83
2021/06/22 07:38:26;;;;;;;15.40;8.40;;;;;;;26.10;100.00;96566.09;5071783;28;20223;-83
2021/06/22 07:40:56;;;;;;;11.87;7.60;;;;;;;26.11;100.00;96562.31;5071839;28;20702;-83
2021/06/22 07:43:23;;;;;;;9.27;6.57;;;;;;;26.18;100.00;96557.56;5071652;28;20262;-83
2021/06/22 07:45:51;;;;;;;6.70;6.10;;;;;;;26.35;100.00;96513.56;5071950;28;20684;-83
2021/06/22 07:48:18;;;;;;;7.00;6.50;;;;;;;26.43;100.00;96527.41;5071553;28;20268;-83
2021/06/22 07:50:46;;;;;;;9.20;6.27;;;;;;;26.51;100.00;96477.66;5071952;28;20203;-83
2021/06/22 07:53:13;;;;;;;8.55;6.97;;;;;;;26.73;100.00;96486.47;5071784;28;20203;-82
2021/06/22 07:55:41;;;;;;;8.05;6.18;;;;;;;26.69;100.00;96450.31;5071580;28;20232;-83
2021/06/22 07:58:13;;;;;;;9.57;6.50;;;;;;;26.86;100.00;96435.91;5071990;28;20619;-83
2021/06/22 08:00:49;;;;;;;6.70;6.13;;;;;;;26.51;100.00;96464.19;5071866;28;20260;-83
2021/06/22 08:03:18;;;;;;;6.28;5.78;;;;;;;26.34;100.00;96440.00;5071510;28;20619;-83
2021/06/22 08:05:47;;;;;;;5.63;5.07;;;;;;;26.82;100.00;96378.19;5071602;28;20192;-83
2021/06/22 08:08:16;;;;;;;6.65;6.15;;;;;;;27.23;100.00;96403.56;5071629;28;20246;-83
2021/06/22 08:10:44;;;;;;;16.50;5.95;;;;;;;26.94;100.00;96368.00;5071731;28;20276;-83
2021/06/22 08:13:13;;;;;;;7.35;6.75;;;;;;;27.12;100.00;96402.69;5071709;28;20197;-83
2021/06/22 08:15:41;;;;;;;8.70;6.18;;;;;;;27.14;100.00;96408.63;5071488;28;20288;-83
2021/06/22 08:18:11;;;;;;;5.63;5.13;;;;;;;27.07;100.00;96364.03;5071535;28;20209;-83
2021/06/22 08:20:40;;;;;;;6.20;5.70;;;;;;;27.20;100.00;96401.38;5071172;28;20311;-83
2021/06/22 08:23:08;;;;;;;6.47;5.90;;;;;;;27.50;100.00;96368.31;5071516;28;20259;-84
2021/06/22 08:25:36;;;;;;;6.88;5.38;;;;;;;27.25;100.00;96296.97;5071378;28;20254;-84
2021/06/22 08:28:04;;;;;;;7.70;5.43;;;;;;;27.20;100.00;96320.44;5071581;28;20585;-84
2021/06/22 08:30:34;;;;;;;8.80;6.57;;;;;;;27.74;100.00;96401.91;5071341;28;20200;-84
2021/06/22 08:33:02;;;;;;;6.82;6.22;;;;;;;27.49;100.00;96361.28;5071424;28;20224;-83
2021/06/22 08:35:31;;;;;;;6.95;6.18;;;;;;;27.48;100.00;96303.81;5071301;28;20205;-84
2021/06/22 08:37:59;;;;;;;7.65;6.43;;;;;;;27.88;100.00;96325.78;5071265;28;20258;-84
2021/06/22 08:40:26;;;;;;;5.75;5.22;;;;;;;27.68;100.00;96280.66;5071131;28;20740;-85
2021/06/22 08:42:53;;;;;;;6.40;5.28;;;;;;;27.91;100.00;96274.75;5071307;28;20577;-83
2021/06/22 08:45:21;;;;;;;7.00;5.82;;;;;;;28.12;100.00;96258.56;5071215;28;20197;-84
2021/06/22 08:47:50;;;;;;;6.35;5.85;;;;;;;28.11;100.00;96209.13;5071053;28;20247;-84
2021/06/22 08:50:19;;;;;;;7.68;6.55;;;;;;;28.15;100.00;96293.94;5072357;28;20680;-84
2021/06/22 08:52:47;;;;;;;6.70;5.85;;;;;;;28.32;100.00;96330.72;5075080;28;20196;-84
2021/06/22 08:55:30;;;;;;;9.93;6.22;;;;;;;28.07;100.00;96324.22;5074846;28;20197;-84
2021/06/22 08:58:00;;;;;;;7.07;6.47;;;;;;;27.82;100.00;96411.41;5075279;28;20262;-84
2021/06/22 09:00:28;;;;;;;10.15;7.68;;;;;;;27.20;100.00;96477.72;5074579;28;20275;-83
2021/06/22 09:03:10;;;;;;;8.40;7.53;;;;;;;27.32;100.00;96487.53;5074787;28;20216;-84
2021/06/22 09:05:39;;;;;;;11.20;7.10;;;;;;;27.58;100.00;96427.22;5074860;28;20243;-84
2021/06/22 09:08:17;;;;;;;8.00;6.85;;;;;;;27.83;100.00;96390.63;5074631;28;20233;-85
2021/06/22 09:10:44;;;;;;;7.82;7.13;;;;;;;28.16;100.00;96449.63;5074698;28;20190;-84
2021/06/22 09:13:14;;;;;;;9.65;7.30;;;;;;;28.34;100.00;96469.13;5074744;28;20192;-84
2021/06/22 09:15:43;;;;;;;7.60;7.10;;;;;;;28.06;100.00;96490.13;5074473;28;20276;-84
2021/06/22 09:18:31;;;;;;;9.20;7.85;;;;;;;27.63;100.00;96497.44;5074226;28;20282;-83
2021/06/22 09:21:00;;;;;;;7.85;7.25;;;;;;;27.97;100.00;96489.78;5074486;28;20217;-84
2021/06/22 09:23:28;;;;;;;8.75;7.97;;;;;;;27.98;100.00;96506.81;5074314;28;20207;-84
2021/06/22 09:25:56;;;;;;;8.07;7.57;;;;;;;27.90;100.00;96343.38;5074065;28;20228;-84
2021/06/22 09:28:26;;;;;;;6.88;6.28;;;;;;;28.20;100.00;96290.47;5074555;28;20236;-83
2021/06/22 09:30:56;;;;;;;8.63;7.93;;;;;;;28.30;100.00;96458.03;5074557;28;20276;-84
2021/06/22 09:33:28;;;;;;;7.22;6.72;;;;;;;28.61;100.00;96436.47;5074413;28;20197;-84
2021/06/22 09:36:03;;;;;;;7.30;6.57;;;;;;;28.47;100.00;96338.03;5074572;28;20188;-84
2021/06/22 09:38:32;;;;;;;7.85;7.25;;;;;;;28.65;100.00;96370.75;5074049;28;20189;-83
2021/06/22 09:41:18;;;;;;;7.45;6.95;;;;;;;28.96;100.00;96262.50;5074340;28;20228;-85
2021/06/22 09:43:49;;;;;;;7.53;6.45;;;;;;;28.68;100.00;96267.47;5076820;28;20231;-85
2021/06/22 09:46:18;;;;;;;7.30;6.80;;;;;;;28.63;100.00;96282.88;5077027;28;20199;-85
2021/06/22 09:48:52;;;;;;;6.95;6.43;;;;;;;28.92;100.00;96274.94;5075467;28;20237;-84
2021/06/22 09:51:28;;;;;;;7.22;6.70;;;;;;;29.17;100.00;96354.50;5078190;28;20216;-86
2021/06/22 09:53:55;;;;;;;7.72;6.25;;;;;;;29.26;100.00;96225.59;5076311;28;20272;-85
2021/06/22 09:56:25;;;;;;;7.13;6.55;;;;;;;28.71;100.00;96228.22;5076050;28;20228;-85
2021/06/22 09:58:52;;;;;;;6.60;6.10;;;;;;;28.42;100.00;96182.06;5076911;28;20283;-85
2021/06/22 10:01:34;;;;;;;7.10;6.40;;;;;;;28.90;100.00;96174.34;5074762;28;20217;-85
2021/06/22 10:04:17;;;;;;;6.80;6.30;;;;;;;28.73;100.00;96136.00;5076677;28;20232;-85
2021/06/22 10:06:52;;;;;;;7.85;7.25;;;;;;;28.17;100.00;96223.44;5077081;28;20191;-86
2021/06/22 10:09:27;;;;;;;7.35;6.75;;;;;;;28.13;100.00;96250.19;5075110;28;20571;-85
2021/06/22 10:12:00;;;;;;;10.13;7.68;;;;;;;28.47;100.00;96257.75;5074188;28;20181;-85
2021/06/22 10:14:30;;;;;;;7.85;7.22;;;;;;;28.90;100.00;96282.56;5073443;28;20193;-85
2021/06/22 10:17:00;;;;;;;7.90;7.30;;;;;;;28.74;100.00;96207.94;5074090;28;20207;-85
2021/06/22 10:19:28;;;;;;;8.13;6.85;;;;;;;28.71;100.00;96186.84;5073961;28;20196;-85
2021/06/22 10:21:58;;;;;;;8.15;7.32;;;;;;;28.97;100.00;96220.03;5073459;28;20225;-85
2021/06/22 10:24:27;;;;;;;7.97;7.38;;;;;;;28.94;100.00;96142.13;5073822;28;20260;-84
2021/06/22 10:26:57;;;;;;;8.25;7.65;;;;;;;28.83;100.00;96152.19;5073558;28;20201;-85
2021/06/22 10:29:25;;;;;;;7.47;6.97;;;;;;;28.71;100.00;96203.88;5073436;28;20185;-85
2021/06/22 10:31:54;;;;;;;6.90;6.40;;;;;;;28.47;100.00;96156.91;5073180;28;20288;-85
2021/06/22 10:34:22;;;;;;;8.00;7.20;;;;;;;28.25;100.00;96222.88;5072867;28;20229;-85
2021/06/22 10:36:54;;;;;;;7.13;6.53;;;;;;;28.24;100.00;96140.19;5072920;28;20732;-85
2021/06/22 10:39:29;;;;;;;7.93;7.13;;;;;;;28.13;100.00;96193.44;5072799;28;20231;-85
2021/06/22 10:41:59;;;;;;;8.32;7.63;;;;;;;28.02;100.00;96299.88;5073129;28;20205;-85
2021/06/22 10:44:51;;;;;;;7.15;6.65;;;;;;;27.96;100.00;96279.38;5073306;28;20618;-85
2021/06/22 10:47:26;;;;;;;7.30;6.80;;;;;;;28.02;100.00;96264.75;5058403;28;20254;-85
2021/06/22 10:50:29;;;;;;;7.30;6.80;;;;;;;28.10;100.00;96312.88;5072789;28;20184;-85
2021/06/22 10:53:02;;;;;;;7.18;6.57;;;;;;;28.44;100.00;96301.56;5072969;28;20189;-85
2021/06/22 10:56:15;;;;;;;7.45;6.85;;;;;;;28.27;100.00;96226.13;5072154;28;20207;-85
2021/06/22 10:58:43;;;;;;;6.82;6.32;;;;;;;28.41;100.00;96221.00;5072562;28;20189;-85
2021/06/22 11:01:17;;;;;;;7.65;6.93;;;;;;;28.62;100.00;96160.38;5072528;28;20232;-85
2021/06/22 11:03:44;;;;;;;7.75;7.03;;;;;;;28.73;100.00;96211.72;5072363;28;20645;-86
2021/06/22 11:06:23;;;;;;;7.63;6.53;;;;;;;28.86;100.00;96192.22;5072723;28;20572;-84
2021/06/22 11:08:52;;;;;;;7.40;6.70;;;;;;;28.99;100.00;96145.63;5072404;28;20196;-85
2021/06/22 11:11:25;;;;;;;7.68;7.05;;;;;;;28.98;100.00;96144.00;5072475;28;20614;-86
2021/06/22 11:13:55;;;;;;;7.05;6.47;;;;;;;29.08;100.00;96086.34;5071618;28;20193;-85
2021/06/22 11:16:33;;;;;;;7.90;7.20;;;;;;;29.08;100.00;96073.63;5072666;28;20182;-86
2021/06/22 11:19:12;;;;;;;6.88;6.18;;;;;;;28.73;100.00;96119.78;5072005;28;20193;-86
2021/06/22 11:21:56;;;;;;;5.97;5.55;;;;;;;28.35;100.00;96097.72;5072689;28;20235;-85
2021/06/22 11:24:28;;;;;;;8.18;7.15;;;;;;;28.85;100.00;96182.47;5072226;28;20181;-85
2021/06/22 11:27:10;;;;;;;7.35;6.70;;;;;;;28.96;100.00;96105.59;5072141;28;20193;-86
2021/06/22 11:29:51;;;;;;;7.03;6.47;;;;;;;29.36;100.00;96172.22;5072420;28;20185;-86
2021/06/22 11:32:37;;;;;;;8.55;6.30;;;;;;;29.57;100.00;96150.41;5072232;28;20631;-86
2021/06/22 11:35:18;;;;;;;7.07;6.32;;;;;;;29.66;100.00;96039.63;5072048;28;20220;-86
2021/06/22 11:37:46;;;;;;;7.13;6.63;;;;;;;29.67;100.00;96019.56;5071903;28;20181;-85